Tiempo atmosférico en la estación meteorológica de Girona, Girona (79 m.)



Fecha
DESCASC
Temp. máxima en grados centígrados (hora)
DESCASC
Temp. mínima en grados centígrados (hora)
DESCASC
Temp. media en grados centígrados
DESCASC
Racha de viento máxima en m/sg (hora)
DESCASC
Velocidad máxima media en intervalos de 10 minutos(hora)
DESCASC
Precipitaciones diarias en mm
DESCASC
Precipitaciones de 00:00 a 06:00 en mm
DESCASC
Precipitaciones de 06:00 a 12:00 en mm
DESCASC
Precipitaciones de 12:00 a 18:00 en mm
DESCASC
Precipitaciones de 18:00 a 24:00 en mm
DESCASC
23-06-2019 34.5 (13:50) 16.6 (06:40) 25.6 7.78 (14:10) 3.89 (14:10) 0 0 0 0 0
22-06-2019 29 (12:40) 17.1 (06:40) 23.1 8.06 (15:20) 3.61 (16:00) 0 0 0 0 0
21-06-2019 29.9 (14:00) 17.9 (04:50) 23.9 7.22 (12:50) 3.33 (19:40) 0 0 0 0 0
20-06-2019 30.6 (15:30) 18.8 (00:00) 24.7 6.94 (14:00) 3.06 (14:00) 0 0 0 0 0
19-06-2019 32.8 (14:00) 17.4 (00:00) 25.1 7.5 (14:40) 4.17 (14:40) 0 0 0 0 0
18-06-2019 32.6 (13:30) 16.7 (00:00) 24.6 12.22 (16:30) 5.28 (14:20) 0 0 0 0 0
17-06-2019 32.1 (14:00) 14.5 (00:00) 23.3 7.5 (16:50) 3.61 (14:50) 0 0 0 0 0
16-06-2019 28.6 (14:00) 13.3 (00:00) 21 8.33 (15:00) 3.89 (15:00) 0 0 0 0 0
15-06-2019 26.9 (15:00) 14.7 (00:00) 20.8 5.83 (15:30) 2.5 (13:00) 0 0 0 0 0
14-06-2019 28.2 (17:10) 13.9 (00:00) 21.1 8.89 (15:10) 4.17 (10:30) 0.2 0.2 0 0 0
13-06-2019 27 (14:40) 10.9 (00:00) 18.9 7.5 (16:10) 3.89 (16:10) 0 0 0 0 0
12-06-2019 23.5 (15:40) 9.7 (00:00) 16.6 8.61 (18:10) 4.44 (16:40) 0 0 0 0 0
11-06-2019 17.2 (00:00) 12.4 (00:00) 14.8 6.11 (15:30) 2.22 (11:40) 12.2 0.6 2.2 6.8 2.6
10-06-2019 29.6 (13:30) 16.3 (00:00) 22.9 8.89 (17:00) 3.61 (15:10) 0 0 0 0 0
09-06-2019 26.2 (13:10) 14.8 (00:00) 20.5 6.39 (12:20) 3.06 (12:20) 0 0 0 0 0
08-06-2019 26.5 (16:40) 11 (00:00) 18.8 6.94 (15:10) 3.33 (14:40) 0 0 0 0 0
07-06-2019 29.6 (17:40) 14.4 (00:00) 22 10.28 (17:50) 4.72 (17:50) 0 0 0 0 0
06-06-2019 23.9 (15:20) 10.6 (00:00) 17.3 11.11 (13:30) 5.56 (17:00) 0 0 0 0 0
05-06-2019 28.6 (16:10) 13.3 (00:00) 21 9.44 (18:00) 4.72 (17:40) 0 0 0 0 0
04-06-2019 29.5 (16:50) 16.4 (00:00) 22.9 12.5 (18:40) 5.56 (15:50) 0 0 0 0 0
03-06-2019 31 (14:00) 13.2 (00:00) 22.1 7.78 (15:40) 3.33 (16:20) 0 0 0 0 0
02-06-2019 29.5 (16:00) 13.4 (00:00) 21.4 7.78 (15:50) 3.89 (15:50) 0 0 0 0 0
01-06-2019 31 (15:10) 12.4 (00:00) 21.7 7.5 (16:30) 3.61 (16:30) 0 0 0 0 0
31-05-2019 28.2 (13:40) 12.4 (00:00) 20.3 8.06 (14:40) 3.89 (15:20) 0 0 0 0 0
30-05-2019 26.3 (15:00) 10.8 (00:00) 18.5 6.67 (14:40) 3.33 (15:50) 0 0 0 0 0
29-05-2019 24.6 (15:50) 10.3 (00:00) 17.5 7.5 (16:10) 3.61 (17:50) 0 0 0 0 0
28-05-2019 22.5 (14:00) 13.9 (00:00) 18.2 5.83 (19:00) 3.06 (19:00) 0.2 0 0 0 0.2

Gráficas

Temp. máximas Temp. mínimas Temp. medias Precipitaciones Rachas de viento máximas Velocidades máximas media en intervalos de 10 minutos

Datos horarios

Fecha y hora oficial Temperatura (ºC) Velocidad del viento (km/h) Dirección del viento Racha (km/h) Dirección de racha Precipitación (mm) Presión (hPa) Tendencia (hPa) Humedad (%)
2019-06-26 23:00:00 27 3 Sudeste 9 Sur 0 -- -- 47
2019-06-26 22:00:00 28.6 6 Sur 14 Sur 0 -- -- 41
2019-06-26 21:00:00 31.4 6 Sur 14 Sudeste 0 -- -- 35
2019-06-26 20:00:00 34.1 7 Sur 17 Sur 0 -- -- 28
2019-06-26 19:00:00 35.7 8 Sur 15 Sudoeste 0 -- -- 27
2019-06-26 18:00:00 37.2 7 Sudeste 15 Sur 0 -- -- 26
2019-06-26 17:00:00 37.9 5 Sur 17 Este 0 -- -- 25
2019-06-26 16:00:00 37.8 7 Sur 18 Sur 0 -- -- 24
2019-06-26 15:00:00 36 6 Nordeste 16 Este 0 -- -- 26
2019-06-26 14:00:00 35 8 Norte 21 Norte 0 -- -- 29
2019-06-26 13:00:00 34 8 Norte 21 Este 0 -- -- 31
2019-06-26 12:00:00 32.8 10 Norte 22 Norte 0 -- -- 32
2019-06-26 11:00:00 31.4 8 Norte 16 Nordeste 0 -- -- 34
2019-06-26 10:00:00 27.6 2 Noroeste 6 Noroeste 0 -- -- 49
2019-06-26 09:00:00 22.9 0 Calma 4 Noroeste 0 -- -- 58
2019-06-26 08:00:00 19.3 0 Calma 3 Sudoeste 0 -- -- 69
2019-06-26 07:00:00 18 0 Calma 4 Sudoeste 0 -- -- 75
2019-06-26 06:00:00 18 0 Calma 4 Oeste 0 -- -- 75
2019-06-26 05:00:00 18.4 0 Calma 5 Noroeste 0 -- -- 75
2019-06-26 04:00:00 18.9 0 Calma 3 Noroeste 0 -- -- 74
2019-06-26 03:00:00 19.6 0 Calma 4 Noroeste 0 -- -- 71
2019-06-26 02:00:00 20.7 0 Calma 5 Noroeste 0 -- -- 68
2019-06-26 01:00:00 22.2 0 Calma 4 Oeste 0 -- -- 68
2019-06-26 00:00:00 23.8 0 Calma 11 Norte 0 -- -- 62
2019-06-25 23:00:00 24.8 3 Nordeste 9 Norte 0 -- -- 56
2019-06-25 22:00:00 26.1 3 Nordeste 8 Sudeste 0 -- -- 51
2019-06-25 21:00:00 27.2 4 Sudeste 16 Este 0 -- -- 49
2019-06-25 20:00:00 28.5 6 Sudeste 22 Sudeste 0 -- -- 47
2019-06-25 19:00:00 29.6 8 Sudeste 20 Sudeste 0 -- -- 45
2019-06-25 18:00:00 30.9 7 Este 21 Nordeste 0 -- -- 45
2019-06-25 17:00:00 32.5 8 Este 21 Nordeste 0 -- -- 39
2019-06-25 16:00:00 33.3 7 Este 21 Norte 0 -- -- 36
2019-06-25 15:00:00 34.5 4 Sudoeste 17 Este 0 -- -- 30
2019-06-25 14:00:00 32.7 6 Norte 17 Noroeste 0 -- -- 33
2019-06-25 13:00:00 31.7 5 Nordeste 22 Nordeste 0 -- -- 36
2019-06-25 12:00:00 29.8 8 Noroeste 17 Noroeste 0 -- -- 41
2019-06-25 11:00:00 28 5 Noroeste 15 Nordeste 0 -- -- 46
2019-06-25 10:00:00 25.3 5 Norte 14 Norte 0 -- -- 56
2019-06-25 09:00:00 22.6 4 Norte 10 Noroeste 0 -- -- 64
2019-06-25 08:00:00 18.8 0 Calma 5 Oeste 0 -- -- 79
2019-06-25 07:00:00 18 0 Calma 4 Norte 0 -- -- 83
2019-06-25 06:00:00 18 0 Calma 4 Sudoeste 0 -- -- 85
2019-06-25 05:00:00 18.4 0 Calma 4 Oeste 0 -- -- 80
2019-06-25 04:00:00 18.9 0 Calma 4 Noroeste 0 -- -- 81
2019-06-25 03:00:00 19.6 0 Calma 3 Noroeste 0 -- -- 82
2019-06-25 02:00:00 20.3 0 Calma 6 Oeste 0 -- -- 82
2019-06-25 01:00:00 21 0 Calma 6 Noroeste 0 -- -- 86
2019-06-25 00:00:00 22 5 Norte 10 Norte 0 -- -- 82
2019-06-24 23:00:00 22.1 4 Nordeste 14 Nordeste 0 -- -- 81
2019-06-24 22:00:00 23.4 5 Norte 14 Noroeste 0 -- -- 73
2019-06-24 21:00:00 25.7 6 Norte 10 Norte 0 -- -- 61
2019-06-24 20:00:00 28 4 Nordeste 20 Este 0 -- -- 44
2019-06-24 19:00:00 29.7 5 Este 19 Este 0 -- -- 39
2019-06-24 18:00:00 32.1 6 Nordeste 22 Nordeste 0 -- -- 28
2019-06-24 17:00:00 33.6 6 Sur 19 Este 0 -- -- 22
2019-06-24 16:00:00 33.6 6 Este 20 Nordeste 0 -- -- 24
2019-06-24 15:00:00 32.2 8 Nordeste 22 Sudeste 0 -- -- 30
2019-06-24 14:00:00 32.4 6 Este 18 Nordeste 0 -- -- 29
2019-06-24 13:00:00 31.9 8 Sur 19 Sudoeste 0 -- -- 34
2019-06-24 12:00:00 30.2 5 Sudoeste 15 Sudoeste 0 -- -- 41
2019-06-24 11:00:00 27.1 5 Norte 9 Noroeste 0 -- -- 50
2019-06-24 10:00:00 24.3 0 Calma 5 Norte 0 -- -- 60
2019-06-24 09:00:00 21.1 0 Calma 5 Oeste 0 -- -- 71
2019-06-24 08:00:00 18.6 0 Calma 5 Oeste 0 -- -- 82
2019-06-24 07:00:00 17.5 2 Nordeste 4 Nordeste 0 -- -- 85
2019-06-24 06:00:00 17.7 0 Calma 3 Oeste 0 -- -- 84
2019-06-24 05:00:00 18.7 0 Calma 5 Sudoeste 0 -- -- 80
2019-06-24 04:00:00 19.6 3 Sur 6 Sur 0 -- -- 75
2019-06-24 03:00:00 20.5 3 Sudoeste 10 Sur 0 -- -- 70
2019-06-24 02:00:00 20.8 4 Sudeste 8 Sudeste 0 -- -- 67
2019-06-24 01:00:00 21.2 2 Sudeste 11 Sudeste 0 -- -- 64
2019-06-24 00:00:00 22.4 4 Sur 9 Sur 0 -- -- 63
2019-06-23 23:00:00 22.9 2 Sur 12 Sur 0 -- -- 61
2019-06-23 22:00:00 23.9 4 Sur 14 Sudeste 0 -- -- 59
2019-06-23 21:00:00 25.9 6 Sur 17 Sur 0 -- -- 49
2019-06-23 20:00:00 28.2 8 Sur 18 Sur 0 -- -- 40
2019-06-23 19:00:00 29.4 4 Sur 17 Sudeste 0 -- -- 41
2019-06-23 18:00:00 30.8 8 Sudeste 19 Sudeste 0 -- -- 41
2019-06-23 17:00:00 32 10 Sudeste 24 Sudeste 0 -- -- 38
2019-06-23 16:00:00 34 10 Sur 25 Sudeste 0 -- -- 35
2019-06-23 15:00:00 33.3 12 Sur 28 Sudeste 0 -- -- 38
2019-06-23 14:00:00 34.3 12 Sur 27 Sur 0 -- -- 34
2019-06-23 13:00:00 33.9 6 Sur 19 Sur 0 -- -- 29
2019-06-23 12:00:00 30.9 8 Sur 17 Sur 0 -- -- 38
2019-06-23 11:00:00 27.2 5 Sur 16 Sudeste 0 -- -- 48
2019-06-23 10:00:00 23.6 5 Sur 13 Sur 0 -- -- 62
2019-06-23 09:00:00 20 6 Sudeste 13 Sudeste 0 -- -- 77
2019-06-23 08:00:00 18.4 5 Sudoeste 10 Sudoeste 0 -- -- 83
2019-06-23 07:00:00 17 0 Calma 4 Noroeste 0 -- -- 89
2019-06-23 06:00:00 17.2 0 Calma 4 Sur 0 -- -- 88
2019-06-23 05:00:00 17.5 2 Sur 5 Sudeste 0 -- -- 88
2019-06-23 04:00:00 18 0 Calma 9 Sur 0 -- -- 85
2019-06-23 03:00:00 18.7 5 Sudeste 12 Sudeste 0 -- -- 82
2019-06-23 02:00:00 19.4 4 Sudeste 6 Sudeste 0 -- -- 79
2019-06-23 01:00:00 20 0 Calma 8 Sudeste 0 -- -- 75
2019-06-23 00:00:00 20.5 4 Sudeste 9 Sur 0 -- -- 72
2019-06-22 23:00:00 21.3 5 Sur 13 Sudeste 0 -- -- 69
2019-06-22 22:00:00 22.2 5 Sur 14 Sudeste 0 -- -- 65
2019-06-22 21:00:00 23.6 7 Sur 19 Sur 0 -- -- 58
2019-06-22 20:00:00 24.9 6 Sur 23 Sur 0 -- -- 55
2019-06-22 19:00:00 26 9 Sur 21 Sudeste 0 -- -- 52
2019-06-22 18:00:00 27.3 8 Sur 27 Sudeste 0 -- -- 50
2019-06-22 17:00:00 27.3 10 Sudeste 24 Este 0 -- -- 49
2019-06-22 16:00:00 27.2 13 Sudeste 29 Sudeste 0 -- -- 51
2019-06-22 15:00:00 28.8 11 Sur 23 Sudeste 0 -- -- 47
2019-06-22 14:00:00 28.6 11 Sur 24 Sudeste 0 -- -- 49
2019-06-22 13:00:00 28.7 6 Sudeste 17 Sudeste 0 -- -- 47
2019-06-22 12:00:00 27.9 6 Sur 13 Sur 0 -- -- 45
2019-06-22 11:00:00 26.1 4 Este 9 Este 0 -- -- 51
2019-06-22 10:00:00 23.7 4 Sur 10 Oeste 0 -- -- 58
2019-06-22 09:00:00 20.4 2 Norte 6 Sudoeste 0 -- -- 67
2019-06-22 08:00:00 18.2 2 Noroeste 4 Nordeste 0 -- -- 76
2019-06-22 07:00:00 17.3 2 Sudeste 5 Nordeste 0 -- -- 75
2019-06-22 06:00:00 17.5 0 Calma 4 Noroeste 0 -- -- 76
2019-06-22 05:00:00 18.1 0 Calma 4 Oeste 0 -- -- 71
2019-06-22 04:00:00 18.7 0 Calma 5 Sudoeste 0 -- -- 66
2019-06-22 03:00:00 19.1 2 Noroeste 9 Noroeste 0 -- -- 64
2019-06-22 02:00:00 19.2 3 Norte 9 Nordeste 0 -- -- 63
2019-06-22 01:00:00 19.9 3 Norte 10 Norte 0 -- -- 62
2019-06-22 00:00:00 21 3 Norte 8 Nordeste 0 -- -- 59
2019-06-21 23:00:00 22.1 3 Nordeste 12 Nordeste 0 -- -- 57
2019-06-21 22:00:00 23.3 5 Norte 15 Nordeste 0 -- -- 54
2019-06-21 21:00:00 25 6 Norte 18 Norte 0 -- -- 51
2019-06-21 20:00:00 26 8 Sur 19 Sudoeste 0 -- -- 56
2019-06-21 19:00:00 26.9 9 Sur 17 Sur 0 -- -- 52
2019-06-21 18:00:00 28.2 5 Norte 20 Norte 0 -- -- 42
2019-06-21 17:00:00 28.5 9 Norte 17 Nordeste 0 -- -- 41
2019-06-21 16:00:00 28.1 6 Norte 23 Noroeste 0 -- -- 42
2019-06-21 15:00:00 28.4 9 Norte 24 Norte 0 -- -- 42
2019-06-21 14:00:00 29.9 5 Norte 23 Noroeste 0 -- -- 38
2019-06-21 13:00:00 28.9 9 Norte 26 Norte 0 -- -- 39
2019-06-21 12:00:00 28.9 6 Norte 20 Noroeste 0 -- -- 39
2019-06-21 11:00:00 26.2 8 Norte 19 Norte 0 -- -- 47
2019-06-21 10:00:00 24.2 9 Norte 17 Norte 0 -- -- 54
2019-06-21 09:00:00 21.4 2 Noroeste 8 Sudoeste 0 -- -- 74
2019-06-21 08:00:00 19.1 2 Noroeste 6 Norte 0 -- -- 84
2019-06-21 07:00:00 18.5 0 Calma 4 Este 0 -- -- 89
2019-06-21 06:00:00 18.6 0 Calma 6 Sudeste 0 -- -- 88
2019-06-21 05:00:00 18 0 Calma 7 Sur 0 -- -- 87
2019-06-21 04:00:00 18.4 2 Sur 10 Sudeste 0 -- -- 79
2019-06-21 03:00:00 18.7 0 Calma 4 Sudeste 0 -- -- 74
2019-06-21 02:00:00 19.5 0 Calma 3 Noroeste 0 -- -- 70
2019-06-21 01:00:00 20.6 0 Calma 5 Noroeste 0 -- -- 67
2019-06-21 00:00:00 22.1 0 Calma 12 Norte 0 -- -- 63
2019-06-20 23:00:00 22.9 4 Noroeste 13 Noroeste 0 -- -- 60
2019-06-20 22:00:00 23.6 4 Nordeste 12 Norte 0 -- -- 55
2019-06-20 21:00:00 24.6 4 Nordeste 12 Norte 0 -- -- 49
2019-06-20 20:00:00 25.4 5 Norte 20 Norte 0 -- -- 46
2019-06-20 19:00:00 26.6 6 Sudeste 18 Sudeste 0 -- -- 43
2019-06-20 18:00:00 27.2 7 Nordeste 23 Norte 0 -- -- 41
2019-06-20 17:00:00 28.6 7 Nordeste 20 Nordeste 0 -- -- 39
2019-06-20 16:00:00 30.3 7 Este 18 Este 0 -- -- 39
2019-06-20 15:00:00 29.5 6 Este 20 Norte 0 -- -- 40
2019-06-20 14:00:00 28.3 11 Norte 25 Norte 0 -- -- 46
2019-06-20 13:00:00 28.1 9 Norte 23 Nordeste 0 -- -- 46
2019-06-20 12:00:00 27.7 6 Norte 15 Nordeste 0 -- -- 49
2019-06-20 11:00:00 26.4 4 Norte 14 Norte 0 -- -- 52
2019-06-20 10:00:00 24.9 5 Norte 15 Nordeste 0 -- -- 58
2019-06-20 09:00:00 22.3 2 Norte 6 Norte 0 -- -- 71
2019-06-20 08:00:00 19.7 0 Calma 4 Noroeste 0 -- -- 82
2019-06-20 07:00:00 19.1 0 Calma 7 Noroeste 0 -- -- 84
2019-06-20 06:00:00 19.3 2 Noroeste 9 Norte 0 -- -- 84
2019-06-20 05:00:00 19 0 Calma 6 Sudeste 0 -- -- 83
2019-06-20 04:00:00 18.9 0 Calma 5 Norte 0 -- -- 84
2019-06-20 03:00:00 19.1 0 Calma 4 Oeste 0 -- -- 84
2019-06-20 02:00:00 19.8 2 Este 5 Este 0 -- -- 83
2019-06-20 01:00:00 20.2 0 Calma 7 Sudeste 0 -- -- 83
2019-06-20 00:00:00 20.7 4 Sudeste 9 Sur 0 -- -- 82
2019-06-19 23:00:00 21.5 4 Sudoeste 10 Sur 0 -- -- 76
2019-06-19 22:00:00 22.7 6 Sur 12 Sudeste 0 -- -- 68
2019-06-19 21:00:00 24 6 Sur 15 Sudeste 0 -- -- 60
2019-06-19 20:00:00 25.3 7 Sur 18 Sur 0 -- -- 54
2019-06-19 19:00:00 26.4 6 Sudeste 23 Sudeste 0 -- -- 49
2019-06-19 18:00:00 28 11 Sur 23 Sur 0 -- -- 47
2019-06-19 17:00:00 29.3 10 Sur 23 Sudeste 0 -- -- 43
2019-06-19 16:00:00 29.8 12 Sur 26 Sudoeste 0 -- -- 43
2019-06-19 15:00:00 30.7 11 Sur -- -- -- -- -- 39
2019-06-19 14:00:00 32.8 6 Sur 12 Sur 0 -- -- 22
2019-06-19 13:00:00 31.1 3 Sur 9 Sudeste 0 -- -- 25
2019-06-19 12:00:00 -- 3 Nordeste 11 Noroeste 0 -- -- --
2019-06-19 11:00:00 26 4 Noroeste 13 Noroeste 0 -- -- 38
2019-06-19 10:00:00 23.5 8 Noroeste 14 Noroeste 0 -- -- 44
2019-06-19 09:00:00 22 2 Norte 13 Sudeste 0 -- -- 46
2019-06-19 08:00:00 20.7 6 Sur 16 Sur 0 -- -- 51
2019-06-19 07:00:00 19.3 5 Sudeste 13 Sur 0 -- -- 55
2019-06-19 06:00:00 17.4 2 Sudeste 5 Norte 0 -- -- 63
2019-06-19 05:00:00 18 0 Calma 9 Sudeste 0 -- -- 62
2019-06-19 04:00:00 18.2 2 Sur 8 Sudeste 0 -- -- 60
2019-06-19 03:00:00 18.6 2 Sudeste 9 Sudeste 0 -- -- 59
2019-06-19 02:00:00 19.3 3 Sudeste 11 Sudeste 0 -- -- 59
2019-06-19 01:00:00 19.7 4 Sudeste 15 Sudeste 0 -- -- 61
2019-06-19 00:00:00 20.7 5 Sur 19 Sur 0 -- -- 59
2019-06-18 23:00:00 22.1 7 Sudeste 26 Sudeste 0 -- -- 52
2019-06-18 22:00:00 24 12 Sudeste 31 Sudeste 0 -- -- 41
2019-06-18 21:00:00 26.1 13 Sudeste 30 Sudeste 0 -- -- 31
2019-06-18 20:00:00 27.1 14 Sudeste 33 Sur 0 -- -- 30
2019-06-18 19:00:00 29.3 12 Sur 33 Sudeste 0 -- -- 26
2019-06-18 18:00:00 30.5 13 Sur 38 Sudeste 0 -- -- 26
2019-06-18 17:00:00 30.2 17 Sur 44 Sur 0 -- -- 29
2019-06-18 16:00:00 30.7 17 Sur 38 Sur 0 -- -- 29
2019-06-18 15:00:00 30.4 17 Sur 42 Sudeste 0 -- -- 30
2019-06-18 14:00:00 31.6 15 Sur 31 Sur 0 -- -- 28
2019-06-18 13:00:00 32.3 12 Sur 33 Sudoeste 0 -- -- 26
2019-06-18 12:00:00 31.4 10 Sur 21 Sudoeste 0 -- -- 24
2019-06-18 11:00:00 28.5 8 Sur 18 Sudoeste 0 -- -- 34
2019-06-18 10:00:00 25.5 7 Sudeste 15 Sur 0 -- -- 39
2019-06-18 09:00:00 20.1 6 Sudeste 15 Sudeste 0 -- -- 51
2019-06-18 08:00:00 18.2 4 Sudeste 12 Sudeste 0 -- -- 58
2019-06-18 07:00:00 17.4 5 Sur 10 Sudeste 0 -- -- 59
2019-06-18 06:00:00 16.8 4 Sudeste 11 Sudeste 0 -- -- 61
2019-06-18 05:00:00 17.3 5 Sudeste 11 Sudeste 0 -- -- 62
2019-06-18 04:00:00 17.7 4 Sudoeste 11 Sur 0 -- -- 66
2019-06-18 03:00:00 17.8 2 Este 6 Sudoeste 0 -- -- 67
2019-06-18 02:00:00 18.8 4 Sur 7 Sur 0 -- -- 66
2019-06-18 01:00:00 19.6 3 Sur 10 Sudeste 0 -- -- 66
2019-06-18 00:00:00 20.4 4 Sur 11 Sudeste 0 -- -- 61
2019-06-17 23:00:00 21.3 4 Sur 9 Sur 0 -- -- 57
2019-06-17 22:00:00 22.7 5 Sur 12 Sudeste 0 -- -- 57
2019-06-17 21:00:00 24.7 6 Sur 18 Sudeste 0 -- -- 53
2019-06-17 20:00:00 26.8 7 Sur 21 Sudeste 0 -- -- 41
2019-06-17 19:00:00 28.3 10 Sur 26 Sur 0 -- -- 30
2019-06-17 18:00:00 30.5 9 Sur 24 Sur 0 -- -- 27
2019-06-17 17:00:00 31 10 Sudeste 27 Sur 0 -- -- 29
2019-06-17 16:00:00 30.9 12 Sudeste 26 Sur 0 -- -- 30
2019-06-17 15:00:00 32 11 Sur 25 Sudeste 0 -- -- 31
2019-06-17 14:00:00 32.1 10 Sur 23 Sudeste 0 -- -- 32
2019-06-17 13:00:00 31.1 6 Sur 17 Sudoeste 0 -- -- 32
2019-06-17 12:00:00 28.9 4 Sudeste 10 Sudeste 0 -- -- 36
2019-06-17 11:00:00 26.4 3 Noroeste 8 Sudoeste 0 -- -- 43
2019-06-17 10:00:00 23.6 0 Calma 7 Sur 0 -- -- 54
2019-06-17 09:00:00 19.7 3 Sur 7 Este 0 -- -- 70
2019-06-17 08:00:00 15.9 0 Calma 3 Norte 0 -- -- 87
2019-06-17 07:00:00 14.6 0 Calma 3 Noroeste 0 -- -- 91
2019-06-17 06:00:00 14.8 0 Calma 4 Noroeste 0 -- -- 87
2019-06-17 05:00:00 15.3 0 Calma 4 Nordeste 0 -- -- 84
2019-06-17 04:00:00 15.9 0 Calma 6 Nordeste 0 -- -- 81
2019-06-17 03:00:00 16.5 0 Calma 4 Este 0 -- -- 80
2019-06-17 02:00:00 17.4 3 Sudoeste 6 Sudoeste 0 -- -- 75
2019-06-17 01:00:00 18.2 3 Sur 7 Sudeste 0 -- -- 70
2019-06-17 00:00:00 19.2 3 Sur 6 Este 0 -- -- 65
2019-06-16 23:00:00 19.9 4 Sudeste 9 Sudeste 0 -- -- 63
2019-06-16 22:00:00 20.8 5 Sudeste 15 Sudoeste 0 -- -- 61
2019-06-16 21:00:00 22.4 6 Sur 14 Sudeste 0 -- -- 58
2019-06-16 20:00:00 23.4 7 Sur 22 Sur 0 -- -- 54
2019-06-16 19:00:00 25 10 Sur 25 Sur 0 -- -- 48
2019-06-16 18:00:00 27.6 9 Sur 19 Sur 0 -- -- 41
2019-06-16 17:00:00 28.2 10 Sur 21 Sur 0 -- -- 41
2019-06-16 16:00:00 28.2 12 Sudeste 23 Sudeste 0 -- -- 41
2019-06-16 15:00:00 27.6 14 Sur 30 Sur 0 -- -- 42
2019-06-16 14:00:00 28.6 5 Sur 16 Sudeste 0 -- -- 38
2019-06-16 13:00:00 26.8 5 Norte 12 Este 0 -- -- 42
2019-06-16 12:00:00 25.7 4 Noroeste 11 Sudoeste 0 -- -- 45
2019-06-16 11:00:00 24 3 Noroeste 10 Noroeste 0 -- -- 45
2019-06-16 10:00:00 21.5 4 Norte 12 Norte 0 -- -- 52
2019-06-16 09:00:00 17.8 2 Oeste 5 Noroeste 0 -- -- 71
2019-06-16 08:00:00 14.6 2 Noroeste 4 Norte 0 -- -- 87
2019-06-16 07:00:00 13.4 0 Calma 5 Nordeste 0 -- -- 87
2019-06-16 06:00:00 13.5 0 Calma 4 Nordeste 0 -- -- 87
2019-06-16 05:00:00 13.9 0 Calma 4 Este 0 -- -- 87
2019-06-16 04:00:00 14.3 2 Nordeste 4 Nordeste 0 -- -- 83
2019-06-16 03:00:00 15 0 Calma 3 Noroeste 0 -- -- 80
2019-06-16 02:00:00 15.8 0 Calma 4 Noroeste 0 -- -- 77
2019-06-16 01:00:00 16.8 0 Calma 4 Noroeste 0 -- -- 69
2019-06-16 00:00:00 17.9 0 Calma 6 Norte 0 -- -- 63
2019-06-15 23:00:00 18.7 2 Nordeste 12 Norte 0 -- -- 58
2019-06-15 22:00:00 19.7 4 Nordeste 17 Norte 0 -- -- 56
2019-06-15 21:00:00 20.9 6 Norte 17 Nordeste 0 -- -- 54
2019-06-15 20:00:00 22.3 5 Nordeste 11 Nordeste 0 -- -- 51
2019-06-15 19:00:00 23.1 9 Norte 15 Norte 0 -- -- 52
2019-06-15 18:00:00 24.2 5 Este 18 Este 0 -- -- 53
2019-06-15 17:00:00 25.1 6 Este 15 Este 0 -- -- 51
2019-06-15 16:00:00 26 5 Nordeste 21 Norte 0 -- -- 50
2019-06-15 15:00:00 26.9 4 Nordeste 14 Nordeste 0 -- -- 48
2019-06-15 14:00:00 25.8 6 Norte 19 Norte 0 -- -- 51
2019-06-15 13:00:00 24.4 9 Norte 20 Nordeste 0 -- -- 54
2019-06-15 12:00:00 23.1 5 Norte 18 Norte 0 -- -- 61
2019-06-15 11:00:00 22.6 8 Norte 19 Este 0 -- -- 63
2019-06-15 10:00:00 21.1 7 Norte 18 Nordeste 0 -- -- 66
2019-06-15 09:00:00 19.5 4 Norte 10 Noroeste 0 -- -- 74
2019-06-15 08:00:00 16.1 2 Noroeste 5 Noroeste 0 -- -- 86
2019-06-15 07:00:00 14.8 0 Calma 3 Nordeste 0 -- -- 90
2019-06-15 06:00:00 15 0 Calma 5 Noroeste 0 -- -- 88
2019-06-15 05:00:00 15.3 0 Calma 6 Noroeste 0 -- -- 86
2019-06-15 04:00:00 15.7 0 Calma 4 Sudoeste 0 -- -- 83
2019-06-15 03:00:00 16.6 0 Calma 5 Norte 0 -- -- 80
2019-06-15 02:00:00 17.4 0 Calma 3 Oeste 0 -- -- 76
2019-06-15 01:00:00 18.1 0 Calma 3 Norte 0 -- -- 74
2019-06-15 00:00:00 19.4 0 Calma 5 Norte 0 -- -- 66
2019-06-14 23:00:00 20.5 0 Calma 5 Noroeste 0 -- -- 63
2019-06-14 22:00:00 22.6 0 Calma 6 Este 0 -- -- 57
2019-06-14 21:00:00 24.2 4 Sudeste 15 Sudeste 0 -- -- 55
2019-06-14 20:00:00 25.3 4 Sudeste 20 Sudeste 0 -- -- 52
2019-06-14 19:00:00 26.6 5 Sur 20 Sur 0 -- -- 49
2019-06-14 18:00:00 28 11 Sur 21 Sudeste 0 -- -- 44
2019-06-14 17:00:00 28 7 Sudeste 16 Sudeste 0 -- -- 40
2019-06-14 16:00:00 26.7 5 Sudeste 32 Norte 0 -- -- 40
2019-06-14 15:00:00 24.2 6 Norte 18 Norte 0 -- -- 47
2019-06-14 14:00:00 24.7 8 Norte 25 Noroeste 0 -- -- 45
2019-06-14 13:00:00 24.5 8 Norte 30 Norte 0 -- -- 46
2019-06-14 12:00:00 22.4 12 Norte 30 Norte 0 -- -- 52
2019-06-14 11:00:00 22.9 8 Norte 32 Norte 0 -- -- 51
2019-06-14 10:00:00 21.7 9 Norte 22 Norte 0 -- -- 56
2019-06-14 09:00:00 19.2 6 Norte 24 Noroeste 0 -- -- 60
2019-06-14 08:00:00 17.9 7 Norte 18 Norte 0 -- -- 60
2019-06-14 07:00:00 17.2 6 Norte 15 Norte 0 -- -- 55
2019-06-14 06:00:00 15.7 3 Noroeste 13 Norte 0 -- -- 56
2019-06-14 05:00:00 15.2 5 Noroeste 15 Norte 0.2 -- -- 69
2019-06-14 04:00:00 14.1 0 Calma 5 Oeste 0 -- -- 73
2019-06-14 03:00:00 14.2 0 Calma 4 Norte 0 -- -- 67
2019-06-14 02:00:00 14.5 0 Calma 5 Noroeste 0 -- -- 68
2019-06-14 01:00:00 15.8 0 Calma 4 Noroeste 0 -- -- 63
2019-06-14 00:00:00 17.1 0 Calma 5 Nordeste 0 -- -- 62
2019-06-13 23:00:00 18.1 4 Nordeste 12 Noroeste 0 -- -- 56
2019-06-13 22:00:00 19.2 5 Norte 12 Norte 0 -- -- 54
2019-06-13 21:00:00 21.5 0 Calma 10 Este 0 -- -- 30
2019-06-13 20:00:00 22.8 4 Este 15 Este 0 -- -- 26
2019-06-13 19:00:00 23.8 6 Sudeste 15 Sur 0 -- -- 23
2019-06-13 18:00:00 24.9 8 Sur 21 Sur 0 -- -- 32
2019-06-13 17:00:00 24 8 Sur 27 Sudeste 0 -- -- 34
2019-06-13 16:00:00 26.2 14 Sur 26 Sur 0 -- -- 31
2019-06-13 15:00:00 26.3 9 Sur 22 Sur 0 -- -- 31
2019-06-13 14:00:00 26.6 9 Sudoeste 18 Sur 0 -- -- 35
2019-06-13 13:00:00 25.6 6 Sur 17 Sudeste 0 -- -- 34
2019-06-13 12:00:00 24 8 Sur 15 Sudeste 0 -- -- 34
2019-06-13 11:00:00 21.6 7 Sudoeste 13 Sudoeste 0 -- -- 53
2019-06-13 10:00:00 18.8 4 Sur 9 Sur 0 -- -- 63
2019-06-13 09:00:00 15.4 2 Sudeste 7 Sur 0 -- -- 75
2019-06-13 08:00:00 12 3 Sur 5 Sudoeste 0 -- -- 96
2019-06-13 07:00:00 11 0 Calma 5 Sur 0 -- -- 99
2019-06-13 06:00:00 11.1 0 Calma 7 Sudeste 0 -- -- 97
2019-06-13 05:00:00 11.7 2 Este 6 Este 0 -- -- 97
2019-06-13 04:00:00 11.9 2 Sur 4 Este 0 -- -- 96
2019-06-13 03:00:00 12.6 0 Calma 3 Norte 0 -- -- 93
2019-06-13 02:00:00 13.1 0 Calma 3 Noroeste 0 -- -- 90
2019-06-13 01:00:00 14.1 0 Calma 4 Sudoeste 0 -- -- 86
2019-06-13 00:00:00 15.2 2 Sudoeste 11 Sur 0 -- -- 85
2019-06-12 23:00:00 16 6 Sudeste 12 Sudeste 0 -- -- 79
2019-06-12 22:00:00 16.8 6 Sudeste 18 Sudeste 0 -- -- 73
2019-06-12 21:00:00 18.1 6 Sudeste 21 Sudeste 0 -- -- 62
2019-06-12 20:00:00 19.4 10 Sudeste 28 Sudeste 0 -- -- 57
2019-06-12 19:00:00 20.4 13 Sur 31 Sudeste 0 -- -- 55
2019-06-12 18:00:00 21.6 15 Sudeste 30 Sur 0 -- -- 52
2019-06-12 17:00:00 22.9 13 Sur 30 Sudeste 0 -- -- 49
2019-06-12 16:00:00 23.2 13 Sudeste 28 Sudeste 0 -- -- 47
2019-06-12 15:00:00 23.1 10 Sur 23 Sur 0 -- -- 46
2019-06-12 14:00:00 21.5 10 Sudeste 22 Sudeste 0 -- -- 50
2019-06-12 13:00:00 20.8 12 Sur 21 Sur 0 -- -- 50
2019-06-12 12:00:00 19.6 8 Sur 17 Sudeste 0 -- -- 51
2019-06-12 11:00:00 17.9 5 Sudeste 12 Sudeste 0 -- -- 58
2019-06-12 10:00:00 15.1 3 Sur 5 Norte 0 -- -- 74
2019-06-12 09:00:00 11.6 2 Sudeste 5 Sur 0 -- -- 100
2019-06-12 08:00:00 10.5 3 Sur 6 Sudoeste 0 -- -- 100
2019-06-12 07:00:00 10.2 0 Calma 5 Sudoeste 0 -- -- 100
2019-06-12 06:00:00 10 0 Calma 5 Sudoeste 0 -- -- 100
2019-06-12 05:00:00 10.1 0 Calma 6 Sur 0 -- -- 100
2019-06-12 04:00:00 10.6 3 Sur 9 Sur 0 -- -- 100
2019-06-12 03:00:00 11.2 5 Sur 9 Sur 0 -- -- 100
2019-06-12 02:00:00 11.7 4 Sudeste 9 Sudeste 0 -- -- 100
2019-06-12 01:00:00 12 4 Sudeste 11 Sudeste 0 -- -- 100
2019-06-12 00:00:00 12.5 0 Calma 5 Sudeste 0 -- -- 100
2019-06-11 23:00:00 12.8 4 Sudeste 8 Sudoeste 0 -- -- 100
2019-06-11 22:00:00 12.8 2 Sur 6 Sur 0.4 -- -- 99
2019-06-11 21:00:00 12.9 2 Sudeste 6 Este 1 -- -- 97
2019-06-11 20:00:00 12.9 3 Sudoeste 6 Norte 0.2 -- -- 98
2019-06-11 19:00:00 12.8 0 Calma 10 Norte 1 -- -- 95
2019-06-11 18:00:00 12.7 3 Noroeste 10 Norte 1 -- -- 92
2019-06-11 17:00:00 12.5 4 Norte 16 Norte 1.8 -- -- 91
2019-06-11 16:00:00 12.6 4 Norte 22 Nordeste 1 -- -- 89
2019-06-11 15:00:00 12.5 7 Norte 17 Nordeste 1.8 -- -- 89
2019-06-11 14:00:00 12.8 7 Norte 18 Norte 0.2 -- -- 88
2019-06-11 13:00:00 13.2 7 Norte 18 Nordeste 1 -- -- 90
2019-06-11 12:00:00 13.8 4 Norte 16 Norte 0.6 -- -- 91
2019-06-11 11:00:00 14.8 5 Nordeste 9 Nordeste 1 -- -- 86
2019-06-11 10:00:00 15.2 0 Calma 9 Sudoeste 0.2 -- -- 90
2019-06-11 09:00:00 15 3 Sur 8 Este 0 -- -- 87
2019-06-11 08:00:00 14.7 2 Sur 4 Sudoeste 0.2 -- -- 85
2019-06-11 07:00:00 14.7 0 Calma 6 Sudoeste 0.2 -- -- 87
2019-06-11 06:00:00 15 0 Calma 9 Este 0.2 -- -- 85
2019-06-11 05:00:00 15.9 3 Sudeste 6 Sudeste 0.4 -- -- 75
2019-06-11 04:00:00 16.4 0 Calma 4 Sudoeste 0 -- -- 67
2019-06-11 03:00:00 16.1 0 Calma 6 Norte 0 -- -- 63
2019-06-11 02:00:00 16.5 0 Calma 4 Noroeste 0 -- -- 61
2019-06-11 01:00:00 16.7 0 Calma 6 Norte 0 -- -- 61
2019-06-11 00:00:00 17.2 3 Norte 8 Nordeste 0 -- -- 56
2019-06-10 23:00:00 17.7 3 Nordeste 8 Nordeste 0 -- -- 55
2019-06-10 22:00:00 18.2 2 Noroeste 17 Este 0 -- -- 54
2019-06-10 21:00:00 19.1 7 Norte 22 Nordeste 0 -- -- 52
2019-06-10 20:00:00 20.8 10 Norte 24 Noroeste 0 -- -- 48
2019-06-10 19:00:00 23.7 9 Sudeste 20 Nordeste 0 -- -- 46
2019-06-10 18:00:00 26 5 Sudeste 26 Sudeste 0 -- -- 40
2019-06-10 17:00:00 26.6 10 Este 32 Nordeste 0 -- -- 39
2019-06-10 16:00:00 26.9 12 Sudeste 30 Sur 0 -- -- 38
2019-06-10 15:00:00 28.4 11 Sudeste 28 Sudeste 0 -- -- 38
2019-06-10 14:00:00 28.7 6 Este 19 Sudeste 0 -- -- 35
2019-06-10 13:00:00 27.8 5 Sur 13 Noroeste 0 -- -- 37
2019-06-10 12:00:00 26.9 4 Norte 12 Nordeste 0 -- -- 38
2019-06-10 11:00:00 24.6 6 Norte 15 Nordeste 0 -- -- 45
2019-06-10 10:00:00 22.4 5 Norte 13 Norte 0 -- -- 54
2019-06-10 09:00:00 19.1 0 Calma 5 Noroeste 0 -- -- 67
2019-06-10 08:00:00 16.9 0 Calma 3 Oeste 0 -- -- 76
2019-06-10 07:00:00 16.4 0 Calma 3 Sudoeste 0 -- -- 79
2019-06-10 06:00:00 16.7 2 Noroeste 5 Noroeste 0 -- -- 79
2019-06-10 05:00:00 17.3 3 Este 10 Sudeste 0 -- -- 76
2019-06-10 04:00:00 18.1 3 Este 10 Sudoeste 0 -- -- 73
2019-06-10 03:00:00 18.4 0 Calma 7 Sur 0 -- -- 71
2019-06-10 02:00:00 19 5 Norte 11 Noroeste 0 -- -- 70
2019-06-10 01:00:00 19.7 2 Norte 13 Norte 0 -- -- 64
2019-06-10 00:00:00 19.9 4 Norte 10 Norte 0 -- -- 61
2019-06-09 23:00:00 20.3 0 Calma 8 Norte 0 -- -- 60
2019-06-09 22:00:00 20.5 3 Sudoeste 12 Norte 0 -- -- 60
2019-06-09 21:00:00 20.9 2 Oeste 9 Noroeste 0 -- -- 58
2019-06-09 20:00:00 21 4 Norte 18 Norte 0 -- -- 56
2019-06-09 19:00:00 21.5 7 Norte 23 Norte 0 -- -- 57
2019-06-09 18:00:00 22.2 6 Norte 20 Nordeste 0 -- -- 59
2019-06-09 17:00:00 23 8 Nordeste 22 Nordeste 0 -- -- 59
2019-06-09 16:00:00 23.5 9 Norte 22 Nordeste 0 -- -- 57
2019-06-09 15:00:00 24.5 7 Norte 22 Norte 0 -- -- 48
2019-06-09 14:00:00 25.6 7 Norte 19 Norte 0 -- -- 38
2019-06-09 13:00:00 25.9 9 Norte 23 Norte 0 -- -- 25
2019-06-09 12:00:00 24.3 9 Norte 20 Norte 0 -- -- 30
2019-06-09 11:00:00 22.3 8 Norte 19 Nordeste 0 -- -- 36
2019-06-09 10:00:00 19.6 2 Oeste 5 Noroeste 0 -- -- 47
2019-06-09 09:00:00 17.8 0 Calma 5 Oeste 0 -- -- 51
2019-06-09 08:00:00 16.7 3 Noroeste 6 Noroeste 0 -- -- 54
2019-06-09 07:00:00 15.6 0 Calma 9 Noroeste 0 -- -- 53
2019-06-09 06:00:00 15 3 Noroeste 6 Oeste 0 -- -- 53
2019-06-09 05:00:00 15.6 2 Noroeste 5 Noroeste 0 -- -- 50
2019-06-09 04:00:00 16.2 0 Calma 5 Norte 0 -- -- 44
2019-06-09 03:00:00 16.5 0 Calma 5 Noroeste 0 -- -- 42
2019-06-09 02:00:00 16.8 0 Calma 5 Sudoeste 0 -- -- 41
2019-06-09 01:00:00 17 0 Calma 5 Noroeste 0 -- -- 40
2019-06-09 00:00:00 17.3 0 Calma 4 Noroeste 0 -- -- 38
2019-06-08 23:00:00 18.9 0 Calma 5 Noroeste 0 -- -- 35
2019-06-08 22:00:00 21.2 0 Calma 8 Noroeste 0 -- -- 30
2019-06-08 21:00:00 22.7 3 Norte 12 Nordeste 0 -- -- 22
2019-06-08 20:00:00 23.8 5 Norte 18 Este 0 -- -- 19
2019-06-08 19:00:00 24.9 5 Este 16 Este 0 -- -- 19
2019-06-08 18:00:00 25.6 6 Este 20 Este 0 -- -- 19
2019-06-08 17:00:00 26.1 8 Este 21 Este 0 -- -- 23
2019-06-08 16:00:00 25.9 7 Nordeste 25 Nordeste 0 -- -- 25
2019-06-08 15:00:00 25.2 9 Norte 23 Norte 0 -- -- 26
2019-06-08 14:00:00 25.8 9 Este 23 Este 0 -- -- 30
2019-06-08 13:00:00 25.3 6 Este 19 Sur 0 -- -- 31
2019-06-08 12:00:00 24.5 4 Este 17 Nordeste 0 -- -- 32
2019-06-08 11:00:00 22.6 6 Nordeste 21 Norte 0 -- -- 35
2019-06-08 10:00:00 20.6 7 Norte 19 Norte 0 -- -- 43
2019-06-08 09:00:00 17.7 7 Norte 18 Nordeste 0 -- -- 53
2019-06-08 08:00:00 12.8 2 Sudoeste 6 Oeste 0 -- -- 73
2019-06-08 07:00:00 11.1 0 Calma 5 Noroeste 0 -- -- 78
2019-06-08 06:00:00 11.6 2 Noroeste 4 Noroeste 0 -- -- 75
2019-06-08 05:00:00 12.4 0 Calma 5 Noroeste 0 -- -- 71
2019-06-08 04:00:00 13.4 0 Calma 5 Noroeste 0 -- -- 67
2019-06-08 03:00:00 14.2 0 Calma 5 Noroeste 0 -- -- 65
2019-06-08 02:00:00 15.2 0 Calma 4 Noroeste 0 -- -- 62
2019-06-08 01:00:00 17.1 0 Calma 18 Norte 0 -- -- 54
2019-06-08 00:00:00 18.2 6 Norte 19 Nordeste 0 -- -- 50
2019-06-07 23:00:00 18.6 8 Nordeste 21 Norte 0 -- -- 51
2019-06-07 22:00:00 19 10 Nordeste 20 Nordeste 0 -- -- 53
2019-06-07 21:00:00 20.4 4 Nordeste 16 Nordeste 0 -- -- 55
2019-06-07 20:00:00 22.4 9 Nordeste 24 Nordeste 0 -- -- 47
2019-06-07 19:00:00 23.7 8 Nordeste 27 Nordeste 0 -- -- 48
2019-06-07 18:00:00 25.9 12 Nordeste 37 Nordeste 0 -- -- 47
2019-06-07 17:00:00 28.9 9 Sur 30 Sudoeste 0 -- -- 42
2019-06-07 16:00:00 27.7 15 Sudeste 33 Sudeste 0 -- -- 46
2019-06-07 15:00:00 28.1 11 Sur 33 Sudeste 0 -- -- 44
2019-06-07 14:00:00 27.1 13 Sur 31 Sudeste 0 -- -- 48
2019-06-07 13:00:00 25.9 15 Sur 31 Sudeste 0 -- -- 50
2019-06-07 12:00:00 25.3 12 Sur 30 Sudeste 0 -- -- 52
2019-06-07 11:00:00 23.5 12 Sur 26 Sudeste 0 -- -- 56
2019-06-07 10:00:00 21.5 10 Sur 23 Sur 0 -- -- 66
2019-06-07 09:00:00 18.3 7 Sudoeste 10 Sudoeste 0 -- -- 79
2019-06-07 08:00:00 16.1 0 Calma 4 Sudoeste 0 -- -- 78
2019-06-07 07:00:00 15.1 0 Calma 4 Noroeste 0 -- -- 82
2019-06-07 06:00:00 14.8 0 Calma 5 Sudoeste 0 -- -- 83
2019-06-07 05:00:00 14.4 0 Calma 4 Noroeste 0 -- -- 84
2019-06-07 04:00:00 15 0 Calma 5 Norte 0 -- -- 83
2019-06-07 03:00:00 15.7 2 Noroeste 5 Oeste 0 -- -- 85
2019-06-07 02:00:00 15.9 0 Calma 7 Sudeste 0 -- -- 88
2019-06-07 01:00:00 16.1 4 Sur 9 Sudeste 0 -- -- 86
2019-06-07 00:00:00 16.2 3 Sur 11 Sudeste 0 -- -- 85
2019-06-06 23:00:00 16.6 5 Sudeste 12 Sudeste 0 -- -- 83
2019-06-06 22:00:00 17.3 7 Sudeste 22 Sur 0 -- -- 77
2019-06-06 21:00:00 18.5 10 Sur 29 Sudeste 0 -- -- 70
2019-06-06 20:00:00 19.8 11 Sudeste 33 Sur 0 -- -- 63
2019-06-06 19:00:00 21 14 Sur 30 Sudeste 0 -- -- 56
2019-06-06 18:00:00 21.8 14 Sur 36 Sudeste 0 -- -- 56
2019-06-06 17:00:00 23 20 Sudeste 40 Sur 0 -- -- 52
2019-06-06 16:00:00 23.8 15 Sudeste 35 Sudeste 0 -- -- 52
2019-06-06 15:00:00 23.5 16 Sur 34 Sur 0 -- -- 52
2019-06-06 14:00:00 23.4 17 Sudeste 40 Sur 0 -- -- 52
2019-06-06 13:00:00 23.5 13 Sur 31 Sudeste 0 -- -- 53
2019-06-06 12:00:00 23.4 10 Sur 21 Sur 0 -- -- 51
2019-06-06 11:00:00 22 4 Noroeste 16 Este 0 -- -- 49
2019-06-06 10:00:00 19.5 4 Sur 13 Sudeste 0 -- -- 51
2019-06-06 09:00:00 16.1 4 Sur 10 Sudeste 0 -- -- 69
2019-06-06 08:00:00 12.4 0 Calma 3 Noroeste 0 -- -- 79
2019-06-06 07:00:00 11 2 Norte 4 Norte 0 -- -- 84
2019-06-06 06:00:00 11 0 Calma 4 Noroeste 0 -- -- 83
2019-06-06 05:00:00 11.5 0 Calma 5 Noroeste 0 -- -- 80
2019-06-06 04:00:00 12 0 Calma 4 Noroeste 0 -- -- 78
2019-06-06 03:00:00 12.7 0 Calma 4 Noroeste 0 -- -- 74
2019-06-06 02:00:00 13.4 0 Calma 5 Noroeste 0 -- -- 71
2019-06-06 01:00:00 14 0 Calma 4 Noroeste 0 -- -- 69
2019-06-06 00:00:00 15 0 Calma 9 Norte 0 -- -- 63
2019-06-05 23:00:00 15.9 3 Nordeste 11 Nordeste 0 -- -- 55
2019-06-05 22:00:00 16.1 4 Norte 18 Norte 0 -- -- 57
2019-06-05 21:00:00 16.4 8 Norte 21 Norte 0 -- -- 55
2019-06-05 20:00:00 18.1 10 Norte 26 Nordeste 0 -- -- 50
2019-06-05 19:00:00 19.1 10 Norte 28 Norte 0 -- -- 50
2019-06-05 18:00:00 20.6 15 Norte 34 Este 0 -- -- 49
2019-06-05 17:00:00 26.4 9 Noroeste 27 Sur 0 -- -- 44
2019-06-05 16:00:00 28.3 12 Sur 30 Sudeste 0 -- -- 39
2019-06-05 15:00:00 28.3 10 Sur 24 Sur 0 -- -- 43
2019-06-05 14:00:00 27.2 13 Sudeste 27 Sudeste 0 -- -- 49
2019-06-05 13:00:00 26.9 8 Sur 18 Sur 0 -- -- 43
2019-06-05 12:00:00 24.6 5 Sudeste 14 Sudoeste 0 -- -- 57
2019-06-05 11:00:00 22.5 4 Norte 10 Sudoeste 0 -- -- 63
2019-06-05 10:00:00 19.9 3 Norte 10 Norte 0 -- -- 73
2019-06-05 09:00:00 17.5 4 Noroeste 9 Norte 0 -- -- 89
2019-06-05 08:00:00 15.3 0 Calma 13 Norte 0 -- -- 99
2019-06-05 07:00:00 14.5 7 Norte 12 Norte 0 -- -- 97
2019-06-05 06:00:00 13.5 0 Calma 5 Noroeste 0 -- -- 76
2019-06-05 05:00:00 14.2 0 Calma 6 Oeste 0 -- -- 78
2019-06-05 04:00:00 14.4 0 Calma 4 Noroeste 0 -- -- 75
2019-06-05 03:00:00 15.9 0 Calma 3 Noroeste 0 -- -- 70
2019-06-05 02:00:00 17.4 0 Calma 5 Sudeste 0 -- -- 73
2019-06-05 01:00:00 18.4 3 Sudeste 9 Sudoeste 0 -- -- 71
2019-06-05 00:00:00 19.1 4 Sur 12 Sudoeste 0 -- -- 65
2019-06-04 23:00:00 20.4 5 Sudoeste 14 Sudeste 0 -- -- 54
2019-06-04 22:00:00 21.7 7 Sudeste 21 Sudeste 0 -- -- 49
2019-06-04 21:00:00 23.2 8 Sudeste 24 Sudeste 0 -- -- 44
2019-06-04 20:00:00 24.9 12 Sudeste 37 Sudeste 0 -- -- 41
2019-06-04 19:00:00 26.5 18 Sudeste 45 Sur 0 -- -- 34
2019-06-04 18:00:00 27.8 16 Sudeste 35 Este 0 -- -- 33
2019-06-04 17:00:00 29.2 14 Sudeste 39 Sudeste 0 -- -- 29
2019-06-04 16:00:00 29 17 Sur 45 Sur 0 -- -- 28
2019-06-04 15:00:00 29.2 18 Sudeste 41 Sudeste 0 -- -- 30
2019-06-04 14:00:00 29.1 16 Sudeste 37 Sudeste 0 -- -- 30
2019-06-04 13:00:00 28.3 16 Sur 36 Sudeste 0 -- -- 32
2019-06-04 12:00:00 27.5 13 Sur 30 Sur 0 -- -- 36
2019-06-04 11:00:00 26.3 9 Sur 24 Sudeste 0 -- -- 40
2019-06-04 10:00:00 23.4 9 Sudeste 17 Sudeste 0 -- -- 45
2019-06-04 09:00:00 20.9 8 Sur 18 Sur 0 -- -- 47
2019-06-04 08:00:00 17.9 3 Sudeste 10 Sudeste 0 -- -- 52
2019-06-04 07:00:00 16.7 0 Calma 8 Sur 0 -- -- 58
2019-06-04 06:00:00 16.9 0 Calma 10 Sudeste 0 -- -- 56
2019-06-04 05:00:00 17.6 3 Sudeste 9 Sudeste 0 -- -- 54
2019-06-04 04:00:00 18 2 Este 9 Sudeste 0 -- -- 54
2019-06-04 03:00:00 18.8 3 Sudeste 12 Sudeste 0 -- -- 53
2019-06-04 02:00:00 19 5 Sudeste 15 Este 0 -- -- 55
2019-06-04 01:00:00 18.9 4 Sudeste 12 Sudeste 0 -- -- 62
2019-06-04 00:00:00 19.4 5 Sur 18 Sudeste 0 -- -- 64
2019-06-03 23:00:00 20.4 6 Sur 19 Sur 0 -- -- 59
2019-06-03 22:00:00 21.8 8 Sur 19 Sudeste 0 -- -- 51
2019-06-03 21:00:00 23.6 6 Sudeste 23 Sur 0 -- -- 43
2019-06-03 20:00:00 25.5 10 Sudeste 22 Sudeste 0 -- -- 40
2019-06-03 19:00:00 27.1 10 Sur 26 Sudeste 0 -- -- 37
2019-06-03 18:00:00 28.8 7 Sudeste 22 Este 0 -- -- 30
2019-06-03 17:00:00 29.5 12 Sudeste 27 Sudeste 0 -- -- 29
2019-06-03 16:00:00 30.7 11 Sudeste 28 Sur 0 -- -- 29
2019-06-03 15:00:00 30.8 9 Sur 22 Sudeste 0 -- -- 29
2019-06-03 14:00:00 31 9 Sur 23 Sur 0 -- -- 30
2019-06-03 13:00:00 29.7 9 Sur 24 Sudoeste 0 -- -- 32
2019-06-03 12:00:00 28.2 4 Sudoeste 13 Sudoeste 0 -- -- 32
2019-06-03 11:00:00 24.9 3 Sur 10 Sur 0 -- -- 36
2019-06-03 10:00:00 21.9 4 Este 9 Este 0 -- -- 44
2019-06-03 09:00:00 18.3 2 Sur 4 Sudeste 0 -- -- 52
2019-06-03 08:00:00 14.9 0 Calma 4 Noroeste 0 -- -- 69
2019-06-03 07:00:00 13.3 0 Calma 4 Sudoeste 0 -- -- 73
2019-06-03 06:00:00 13.6 0 Calma 4 Noroeste 0 -- -- 73
2019-06-03 05:00:00 14.1 0 Calma 3 Noroeste 0 -- -- 73
2019-06-03 04:00:00 15.3 0 Calma 4 Sudoeste 0 -- -- 68
2019-06-03 03:00:00 16.5 0 Calma 4 Sudoeste 0 -- -- 64
2019-06-03 02:00:00 18.2 2 Sudoeste 9 Sudeste 0 -- -- 53
2019-06-03 01:00:00 19.5 3 Sudeste 9 Sudeste 0 -- -- 42
2019-06-03 00:00:00 19.8 3 Sur 8 Sudeste 0 -- -- 46
2019-06-02 23:00:00 20.7 3 Sur 9 Sur 0 -- -- 45
2019-06-02 22:00:00 21.7 4 Sur 16 Sudeste 0 -- -- 42
2019-06-02 21:00:00 22.9 7 Sur 21 Sur 0 -- -- 37
2019-06-02 20:00:00 24.2 8 Sudeste 23 Sudeste 0 -- -- 35
2019-06-02 19:00:00 26.1 11 Sudeste 26 Sur 0 -- -- 33
2019-06-02 18:00:00 28.5 9 Sur 27 Sudeste 0 -- -- 30
2019-06-02 17:00:00 29 14 Sudeste 28 Sudeste 0 -- -- 33
2019-06-02 16:00:00 29.5 12 Sur 28 Sur 0 -- -- 35
2019-06-02 15:00:00 29.3 12 Sur 27 Sudeste 0 -- -- 38
2019-06-02 14:00:00 29.3 10 Sur 22 Sur 0 -- -- 39
2019-06-02 13:00:00 28.4 10 Sudeste 24 Sudeste 0 -- -- 39
2019-06-02 12:00:00 27.5 7 Sur 16 Sudeste 0 -- -- 37
2019-06-02 11:00:00 24.9 5 Sur 12 Sudeste 0 -- -- 41
2019-06-02 10:00:00 21.6 5 Sudoeste 14 Sudoeste 0 -- -- 47
2019-06-02 09:00:00 18.3 4 Sur 8 Sur 0 -- -- 55
2019-06-02 08:00:00 14.7 0 Calma 3 Oeste 0 -- -- 73
2019-06-02 07:00:00 13.5 0 Calma 4 Noroeste 0 -- -- 78
2019-06-02 06:00:00 14.2 0 Calma 9 Sur 0 -- -- 73
2019-06-02 05:00:00 15.9 3 Sur 8 Sur 0 -- -- 59
2019-06-02 04:00:00 15.4 3 Sudeste 9 Sur 0 -- -- 66
2019-06-02 03:00:00 15.9 0 Calma 5 Sudoeste 0 -- -- 69
2019-06-02 02:00:00 17.2 3 Sudoeste 7 Sudoeste 0 -- -- 64
2019-06-02 01:00:00 17.9 4 Sur 8 Sur 0 -- -- 65
2019-06-02 00:00:00 18.6 3 Sur 8 Sur 0 -- -- 55
2019-06-01 23:00:00 19.5 4 Sur 15 Sudeste 0 -- -- 49
2019-06-01 22:00:00 20.6 6 Sudeste 22 Sudeste 0 -- -- 47
2019-06-01 21:00:00 22.2 9 Sudeste 22 Sudeste 0 -- -- 44
2019-06-01 20:00:00 24.1 10 Sudeste 24 Sudeste 0 -- -- 40
2019-06-01 19:00:00 26 10 Sur 24 Sudeste 0 -- -- 38
2019-06-01 18:00:00 27.8 11 Sudeste 26 Sudeste 0 -- -- 35
2019-06-01 17:00:00 28.6 13 Sur 27 Sur 0 -- -- 34
2019-06-01 16:00:00 30.5 12 Sur 24 Sur 0 -- -- 31
2019-06-01 15:00:00 30.7 9 Sur 19 Sudeste 0 -- -- 33
2019-06-01 14:00:00 30 7 Sur 16 Sudeste 0 -- -- 31
2019-06-01 13:00:00 28.8 6 Sur 14 Sur 0 -- -- 35
2019-06-01 12:00:00 27.3 4 Sur 10 Sur 0 -- -- 38
2019-06-01 11:00:00 25.2 2 Sudoeste 7 Sur 0 -- -- 43
2019-06-01 10:00:00 21.4 2 Norte 5 Noroeste 0 -- -- 57
2019-06-01 09:00:00 17.3 0 Calma 4 Nordeste 0 -- -- 67
2019-06-01 08:00:00 14 2 Noroeste 4 Noroeste 0 -- -- 81
2019-06-01 07:00:00 12.4 0 Calma 3 Oeste 0 -- -- 87
2019-06-01 06:00:00 12.9 0 Calma 4 Nordeste 0 -- -- 85
2019-06-01 05:00:00 13 0 Calma 3 Oeste 0 -- -- 82
2019-06-01 04:00:00 14.1 0 Calma 3 Nordeste 0 -- -- 78
2019-06-01 03:00:00 14.5 0 Calma 3 Nordeste 0 -- -- 76
2019-06-01 02:00:00 15.8 3 Nordeste 5 Sudeste 0 -- -- 68
2019-06-01 01:00:00 16.8 2 Este 5 Este 0 -- -- 65
2019-06-01 00:00:00 18 0 Calma 5 Este 0 -- -- 60
2019-05-31 23:00:00 19.4 0 Calma 8 Sudeste 0 -- -- 56
2019-05-31 22:00:00 20.9 3 Sur 10 Sudeste 0 -- -- 50
2019-05-31 21:00:00 22.2 5 Sudeste 15 Sur 0 -- -- 45
2019-05-31 20:00:00 23.5 6 Sur 19 Sudeste 0 -- -- 41
2019-05-31 19:00:00 24.6 8 Sur 21 Sudeste 0 -- -- 41
2019-05-31 18:00:00 26 9 Sur 22 Sur 0 -- -- 39
2019-05-31 17:00:00 26.5 11 Sur 27 Sudeste 0 -- -- 37
2019-05-31 16:00:00 26.9 12 Sur 28 Sur 0 -- -- 37
2019-05-31 15:00:00 27.7 11 Sudeste 29 Sudeste 0 -- -- 36
2019-05-31 14:00:00 28.1 11 Sur 26 Sudoeste 0 -- -- 35
2019-05-31 13:00:00 27.5 7 Sur 18 Sudoeste 0 -- -- 35
2019-05-31 12:00:00 26.4 6 Sur 16 Sur 0 -- -- 38
2019-05-31 11:00:00 24.7 3 Oeste 9 Sudoeste 0 -- -- 40
2019-05-31 10:00:00 21.1 2 Noroeste 5 Norte 0 -- -- 53
2019-05-31 09:00:00 16.9 0 Calma 6 Sudoeste 0 -- -- 66
2019-05-31 08:00:00 13.7 0 Calma 4 Nordeste 0 -- -- 82
2019-05-31 07:00:00 12.5 0 Calma 5 Nordeste 0 -- -- 85
2019-05-31 06:00:00 12.6 0 Calma 3 Norte 0 -- -- 86
2019-05-31 05:00:00 13.1 0 Calma 5 Este 0 -- -- 83
2019-05-31 04:00:00 13.7 3 Este 6 Sudeste 0 -- -- 79
2019-05-31 03:00:00 14.3 0 Calma 7 Sudeste 0 -- -- 75
2019-05-31 02:00:00 15 0 Calma 5 Este 0 -- -- 73
2019-05-31 01:00:00 15.7 2 Este 8 Sudeste 0 -- -- 71
2019-05-31 00:00:00 17.1 2 Nordeste 9 Sudoeste 0 -- -- 66
2019-05-30 23:00:00 18.2 4 Sur 9 Sur 0 -- -- 63
2019-05-30 22:00:00 19.3 5 Sur 10 Sudoeste 0 -- -- 56
2019-05-30 21:00:00 20.6 3 Sudoeste 14 Sur 0 -- -- 50
2019-05-30 20:00:00 22 8 Sur 22 Sudoeste 0 -- -- 44
2019-05-30 19:00:00 23.2 12 Sudoeste 21 Sudoeste 0 -- -- 46
2019-05-30 18:00:00 25.2 10 Sur 21 Sudoeste 0 -- -- 41
2019-05-30 17:00:00 25.9 10 Sur 21 Sudeste 0 -- -- 39
2019-05-30 16:00:00 26.2 8 Sur 22 Sudoeste 0 -- -- 39
2019-05-30 15:00:00 26.3 10 Sur 24 Sudeste 0 -- -- 40
2019-05-30 14:00:00 25.8 5 Sudeste 14 Nordeste 0 -- -- 37
2019-05-30 13:00:00 24.8 5 Sur 11 Sur 0 -- -- 37
2019-05-30 12:00:00 23 4 Sudoeste 14 Sur 0 -- -- 42
2019-05-30 11:00:00 21.4 2 Noroeste 7 Este 0 -- -- 46
2019-05-30 10:00:00 18.6 3 Sur 6 Sudoeste 0 -- -- 56
2019-05-30 09:00:00 14.8 3 Noroeste 7 Norte 0 -- -- 76
2019-05-30 08:00:00 11.9 2 Nordeste 4 Nordeste 0 -- -- 87
2019-05-30 07:00:00 11 0 Calma 4 Nordeste 0 -- -- 92
2019-05-30 06:00:00 11.1 2 Nordeste 6 Sudeste 0 -- -- 91
2019-05-30 05:00:00 11.3 0 Calma 4 Noroeste 0 -- -- 92
2019-05-30 04:00:00 11.9 2 Este 9 Sur 0 -- -- 90
2019-05-30 03:00:00 12.6 2 Nordeste 4 Sudoeste 0 -- -- 87
2019-05-30 02:00:00 13.1 0 Calma 4 Este 0 -- -- 86
2019-05-30 01:00:00 14 2 Noroeste 8 Sudoeste 0 -- -- 81
2019-05-30 00:00:00 15.2 0 Calma 6 Norte 0 -- -- 78
2019-05-29 23:00:00 16 0 Calma 10 Sur 0 -- -- 75
2019-05-29 22:00:00 17.1 5 Sur 10 Sur 0 -- -- 72
2019-05-29 21:00:00 18.4 6 Sur 16 Sudeste 0 -- -- 67
2019-05-29 20:00:00 19.5 9 Sur 24 Sur 0 -- -- 61
2019-05-29 19:00:00 21.3 11 Sudeste 24 Sudoeste 0 -- -- 48
2019-05-29 18:00:00 22.9 13 Sur 26 Sur 0 -- -- 45
2019-05-29 17:00:00 24 11 Sur 27 Sur 0 -- -- 41
2019-05-29 16:00:00 23.9 13 Sur 25 Sur 0 -- -- 45
2019-05-29 15:00:00 23.7 7 Sudeste 23 Sudeste 0 -- -- 38
2019-05-29 14:00:00 23.2 4 Norte 19 Sudoeste 0 -- -- 42
2019-05-29 13:00:00 22.5 4 Sur 16 Sur 0 -- -- 40
2019-05-29 12:00:00 21.1 8 Sudoeste 19 Sudoeste 0 -- -- 43
2019-05-29 11:00:00 19.6 3 Oeste 13 Nordeste 0 -- -- 45
2019-05-29 10:00:00 17.1 4 Noroeste 10 Nordeste 0 -- -- 55
2019-05-29 09:00:00 14.6 3 Noroeste 8 Noroeste 0 -- -- 67
2019-05-29 08:00:00 11.4 2 Norte 4 Este 0 -- -- 93
2019-05-29 07:00:00 10.3 0 Calma 6 Norte 0 -- -- 99
2019-05-29 06:00:00 10.6 0 Calma 5 Noroeste 0 -- -- 99
2019-05-29 05:00:00 11 2 Noroeste 8 Nordeste 0 -- -- 98
2019-05-29 04:00:00 11.3 0 Calma 2 Este 0 -- -- 97
2019-05-29 03:00:00 11.9 0 Calma 5 Oeste 0 -- -- 93
2019-05-29 02:00:00 13.1 0 Calma 9 Noroeste 0 -- -- 91
2019-05-29 01:00:00 14 0 Calma 5 Nordeste 0 -- -- 86
2019-05-29 00:00:00 14.5 3 Nordeste 7 Nordeste 0 -- -- 86
2019-05-28 23:00:00 14.4 4 Sudeste 10 Sudeste 0 -- -- 89
2019-05-28 22:00:00 14.7 4 Sudeste 11 Sudeste 0 -- -- 89
2019-05-28 21:00:00 15.4 5 Sudeste 14 Sudeste 0 -- -- 85
2019-05-28 20:00:00 16.1 6 Sur 19 Sur 0.2 -- -- 79
2019-05-28 19:00:00 17.6 11 Sudoeste 21 Sudoeste 0 -- -- 66
2019-05-28 18:00:00 18 6 Sur 17 Sudeste 0 -- -- 65
2019-05-28 17:00:00 18.7 8 Sur 19 Sudeste 0 -- -- 60
2019-05-28 16:00:00 19 8 Sur 18 Sur 0 -- -- 64
2019-05-28 15:00:00 20.3 9 Sur 17 Sudoeste 0 -- -- 55
2019-05-28 14:00:00 22.5 7 Sudeste 19 Sur 0 -- -- 50
2019-05-28 13:00:00 22 4 Sudoeste 14 Norte 0 -- -- 48
2019-05-28 12:00:00 20.7 5 Norte 14 Nordeste 0 -- -- 53
2019-05-28 11:00:00 19.6 8 Norte 13 Norte 0 -- -- 55
2019-05-28 10:00:00 18.6 3 Noroeste 11 Noroeste 0 -- -- 62
2019-05-28 09:00:00 16.6 3 Norte 7 Norte 0 -- -- 68
2019-05-28 08:00:00 14.5 2 Noroeste 5 Oeste 0 -- -- 87
2019-05-28 07:00:00 14.2 0 Calma 4 Oeste 0 -- -- 85
2019-05-28 06:00:00 14.3 0 Calma 5 Norte 0 -- -- 97
2019-05-28 05:00:00 14 0 Calma 6 Noroeste 0 -- -- 99
2019-05-28 04:00:00 14 0 Calma 3 Noroeste 0 -- -- 95
2019-05-28 03:00:00 14.9 2 Noroeste 6 Sudeste 0 -- -- 92
2019-05-28 02:00:00 15.8 2 Sur 10 Sur 0 -- -- 90
2019-05-28 01:00:00 16.3 3 Sur 9 Sudeste 0 -- -- 88
2019-05-28 00:00:00 17 5 Sudeste 9 Sudeste 0 -- -- 85